Terminal Aerodrome Forecast
Issued by NWS Raleigh/Durham, NC

Current Version | Previous Version | Text Only | Print | Product List | Glossary On
Versions: 1 2 3 4 5 6 7 8 9 10 11 12 13 14 15 16 17 18 19 20 21 22 23 24 25 26 27 28 29 30 31 32 33 34 35 36 37 38 39 40 41 42 43 44 45
000
FTUS42 KRAH 010806 AAA
TAFFAY
TAF AMD
KFAY 010806Z 0108/0206 34003KT P6SM SCT005
      TEMPO 0108/0109 2SM BR OVC004
     FM010900 00000KT 2SM BR OVC003
      TEMPO 0109/0112 1/2SM FG VV001
     FM011300 33004KT 4SM BR BKN016
     FM011500 35005KT P6SM BKN020
     FM011800 01005KT P6SM BKN030
     FM012000 VRB04KT P6SM SCT035=

USA.gov is the U.S. government's official web portal to all federal, state and local government web resources and services.